createdAt,value
2018-08-23T00:00:44.656Z,22.61
2018-08-23T00:03:23.562Z,22.53
2018-08-23T00:05:53.800Z,22.51
2018-08-23T00:08:23.426Z,22.36
2018-08-23T00:10:53.144Z,22.33
2018-08-23T00:13:22.572Z,22.19
2018-08-23T00:18:31.120Z,21.95
2018-08-23T00:21:00.134Z,21.92
2018-08-23T00:23:29.060Z,21.84
2018-08-23T00:26:16.719Z,21.83
2018-08-23T00:28:46.605Z,21.76
2018-08-23T00:31:15.731Z,21.68
2018-08-23T00:33:45.205Z,21.61
2018-08-23T00:36:14.147Z,21.52
2018-08-23T00:38:43.164Z,21.47
2018-08-23T00:41:12.265Z,21.51
2018-08-23T00:43:41.250Z,21.48
2018-08-23T00:46:16.222Z,21.46
2018-08-23T00:48:45.245Z,21.47
2018-08-23T00:51:14.387Z,21.45
2018-08-23T00:53:47.974Z,21.48
2018-08-23T00:56:22.839Z,21.61
2018-08-23T00:58:57.637Z,21.59
2018-08-23T01:01:26.550Z,21.63
2018-08-23T01:03:55.276Z,21.48
2018-08-23T01:06:31.997Z,21.44
2018-08-23T01:09:00.945Z,21.39
2018-08-23T01:11:29.928Z,21.30
2018-08-23T01:13:59.353Z,21.22
2018-08-23T01:16:32.168Z,21.17
2018-08-23T01:19:06.205Z,21.05
2018-08-23T01:21:39.339Z,21.15
2018-08-23T01:24:08.679Z,21.18
2018-08-23T01:26:37.527Z,21.17
2018-08-23T01:29:17.557Z,21.10
2018-08-23T01:31:46.473Z,21.04
2018-08-23T01:34:15.456Z,21.01
2018-08-23T01:36:44.337Z,21.02
2018-08-23T01:39:13.332Z,20.92
2018-08-23T01:41:42.389Z,20.86
2018-08-23T01:44:11.469Z,20.82
2018-08-23T01:46:45.210Z,20.90
2018-08-23T01:49:14.708Z,20.83
2018-08-23T01:51:43.581Z,20.83
2018-08-23T01:54:12.517Z,20.87
2018-08-23T01:56:41.536Z,20.81
2018-08-23T01:59:10.763Z,20.78
2018-08-23T02:01:39.812Z,20.81
2018-08-23T02:06:46.422Z,20.75
2018-08-23T02:09:15.518Z,20.68
2018-08-23T02:11:44.522Z,20.69
2018-08-23T02:14:13.844Z,20.62
2018-08-23T02:16:51.290Z,20.56
2018-08-23T02:19:23.858Z,20.49
2018-08-23T02:21:52.721Z,20.42
2018-08-23T02:24:26.379Z,20.47
2018-08-23T02:26:55.364Z,20.42
2018-08-23T02:29:35.637Z,20.41
2018-08-23T02:32:05.808Z,20.35
2018-08-23T02:34:42.695Z,20.32
2018-08-23T02:37:12.791Z,20.25
2018-08-23T02:39:42.524Z,20.23
2018-08-23T02:42:13.656Z,20.23
2018-08-23T02:44:43.637Z,20.16
2018-08-23T02:47:12.947Z,20.13
2018-08-23T02:49:43.945Z,20.08
2018-08-23T02:52:12.914Z,20.08
2018-08-23T02:54:41.883Z,20.03
2018-08-23T02:57:14.284Z,20.03
2018-08-23T02:59:43.213Z,20.07
2018-08-23T03:02:14.743Z,20.03
2018-08-23T03:04:49.258Z,20.02
2018-08-23T03:07:24.433Z,20.01
2018-08-23T03:09:53.455Z,19.99
2018-08-23T03:12:22.341Z,20.01
2018-08-23T03:14:52.325Z,19.88
2018-08-23T03:17:22.912Z,20.02
2018-08-23T03:20:02.309Z,20.05
2018-08-23T03:22:32.452Z,20.08
2018-08-23T03:25:08.869Z,20.01
2018-08-23T03:27:37.927Z,20.00
2018-08-23T03:30:09.036Z,20.00
2018-08-23T03:32:38.134Z,19.99
2018-08-23T03:35:07.325Z,20.00
2018-08-23T03:37:37.638Z,19.96
2018-08-23T03:40:07.235Z,20.02
2018-08-23T03:42:36.371Z,19.96
2018-08-23T03:45:05.921Z,19.97
2018-08-23T03:47:40.116Z,20.02
2018-08-23T03:50:10.003Z,20.08
2018-08-23T03:52:39.697Z,20.14
2018-08-23T03:55:10.104Z,20.20
2018-08-23T03:57:44.286Z,20.25
2018-08-23T04:00:13.621Z,20.26
2018-08-23T04:02:42.548Z,20.31
2018-08-23T04:05:16.727Z,20.36
2018-08-23T04:07:46.735Z,20.38
2018-08-23T04:10:17.701Z,20.40
2018-08-23T04:12:46.606Z,20.46
2018-08-23T04:15:28.932Z,20.54
2018-08-23T04:18:02.754Z,20.58
2018-08-23T04:20:45.489Z,20.69
2018-08-23T04:23:14.464Z,20.83
2018-08-23T04:25:43.523Z,20.92
2018-08-23T04:28:13.386Z,21.06
2018-08-23T04:30:42.275Z,21.19
2018-08-23T04:33:11.187Z,21.26
2018-08-23T04:35:40.018Z,21.40
2018-08-23T04:38:09.034Z,21.50
2018-08-23T04:40:38.051Z,21.63
2018-08-23T04:43:06.937Z,21.76
2018-08-23T04:45:35.848Z,21.88
2018-08-23T04:48:07.148Z,22.04
2018-08-23T04:50:36.413Z,22.11
2018-08-23T04:53:05.459Z,22.27
2018-08-23T04:55:34.799Z,22.41
2018-08-23T04:58:04.819Z,22.55
2018-08-23T05:00:34.053Z,22.71
2018-08-23T05:03:04.779Z,22.83
2018-08-23T05:05:33.675Z,22.97
2018-08-23T05:08:02.686Z,23.06
2018-08-23T05:10:33.477Z,23.14
2018-08-23T05:13:02.424Z,23.25
2018-08-23T05:15:31.573Z,22.98
2018-08-23T05:18:00.702Z,22.87
2018-08-23T05:20:29.712Z,23.02
2018-08-23T05:23:05.521Z,23.34
2018-08-23T05:25:34.438Z,23.57
2018-08-23T05:28:12.734Z,23.73
2018-08-23T05:30:43.642Z,23.88
2018-08-23T05:33:19.897Z,23.96
2018-08-23T05:35:49.067Z,23.98
2018-08-23T05:38:18.622Z,23.92
2018-08-23T05:40:54.336Z,23.98
2018-08-23T05:43:23.727Z,23.90
2018-08-23T05:45:54.897Z,23.78
2018-08-23T05:48:32.062Z,23.69
2018-08-23T05:51:05.115Z,23.60
2018-08-23T05:53:37.671Z,23.54
2018-08-23T05:56:07.176Z,23.45
2018-08-23T05:58:36.198Z,23.39
2018-08-23T06:01:05.204Z,23.45
2018-08-23T06:03:35.006Z,23.54
2018-08-23T06:06:03.824Z,23.49
2018-08-23T06:08:32.766Z,23.50
2018-08-23T06:11:07.433Z,23.62
2018-08-23T06:13:36.374Z,23.66
2018-08-23T06:16:05.397Z,23.84
2018-08-23T06:18:34.204Z,23.96
2018-08-23T06:21:03.232Z,24.06
2018-08-23T06:23:39.834Z,24.23
2018-08-23T06:26:08.854Z,24.24
2018-08-23T06:28:37.945Z,24.41
2018-08-23T06:31:07.249Z,24.51
2018-08-23T06:33:41.295Z,24.59
2018-08-23T06:36:11.250Z,24.60
2018-08-23T06:38:40.836Z,24.71
2018-08-23T06:41:09.904Z,24.75
2018-08-23T06:43:39.328Z,24.67
2018-08-23T06:46:08.206Z,24.89
2018-08-23T06:48:37.266Z,25.15
2018-08-23T06:51:10.765Z,25.39
2018-08-23T06:53:48.226Z,25.32
2018-08-23T06:56:19.134Z,25.57
2018-08-23T06:58:48.369Z,25.19
2018-08-23T07:01:34.648Z,25.53
2018-08-23T07:04:08.812Z,25.55
2018-08-23T07:06:38.441Z,25.91
2018-08-23T07:09:17.214Z,26.11
2018-08-23T07:11:46.483Z,26.29
2018-08-23T07:14:17.644Z,26.38
2018-08-23T07:16:48.307Z,26.49
2018-08-23T07:19:27.877Z,26.66
2018-08-23T07:21:57.605Z,26.78
2018-08-23T07:24:41.505Z,26.83
2018-08-23T07:27:12.063Z,26.86
2018-08-23T07:29:41.565Z,27.22
2018-08-23T07:32:16.877Z,27.49
2018-08-23T07:35:01.461Z,27.61
2018-08-23T07:37:31.653Z,27.78
2018-08-23T07:40:05.625Z,27.88
2018-08-23T07:42:35.996Z,27.76
2018-08-23T07:45:04.961Z,27.65
2018-08-23T07:47:36.538Z,27.83
2018-08-23T07:50:06.210Z,27.98
2018-08-23T07:52:35.380Z,28.11
2018-08-23T07:55:06.580Z,28.27
2018-08-23T07:57:36.630Z,28.66
2018-08-23T08:00:44.488Z,28.71
2018-08-23T08:03:14.466Z,29.52
2018-08-23T08:05:44.700Z,30.14
2018-08-23T08:08:14.105Z,30.12
2018-08-23T08:10:44.633Z,30.27
2018-08-23T08:13:13.593Z,30.47
2018-08-23T08:15:42.549Z,30.79
2018-08-23T08:18:23.285Z,31.00
2018-08-23T08:20:59.775Z,31.14
2018-08-23T08:23:29.217Z,31.16
2018-08-23T08:25:58.151Z,31.10
2018-08-23T08:28:27.109Z,30.82
2018-08-23T08:30:59.582Z,30.71
2018-08-23T08:33:33.554Z,30.75
2018-08-23T08:36:04.122Z,30.80
2018-08-23T08:38:33.579Z,30.84
2018-08-23T08:41:02.494Z,30.88
2018-08-23T08:43:32.028Z,30.96
2018-08-23T08:46:01.288Z,30.87
2018-08-23T08:48:30.175Z,30.93
2018-08-23T08:51:15.528Z,30.27
2018-08-23T08:53:44.847Z,30.29
2018-08-23T08:56:13.809Z,30.40
2018-08-23T08:58:43.595Z,30.55
2018-08-23T09:01:12.453Z,30.63
2018-08-23T09:03:41.447Z,30.59
2018-08-23T09:06:11.612Z,30.67
2018-08-23T09:08:40.639Z,30.74
2018-08-23T09:11:09.768Z,30.75
2018-08-23T09:13:44.088Z,30.80
2018-08-23T09:16:12.952Z,30.00
2018-08-23T09:18:42.977Z,30.34
2018-08-23T09:21:12.023Z,30.58
2018-08-23T09:23:41.052Z,30.60
2018-08-23T09:26:09.923Z,30.46
2018-08-23T09:28:39.262Z,30.36
2018-08-23T09:31:08.134Z,30.55
2018-08-23T09:33:37.155Z,30.74
2018-08-23T09:36:06.735Z,30.28
2018-08-23T09:38:35.730Z,29.94
2018-08-23T09:41:04.704Z,29.95
2018-08-23T09:43:34.661Z,29.86
2018-08-23T09:46:03.601Z,29.41
2018-08-23T09:48:32.589Z,29.56
2018-08-23T09:51:01.759Z,29.75
2018-08-23T09:53:30.724Z,30.19
2018-08-23T09:55:59.777Z,30.43
2018-08-23T09:58:34.096Z,30.37
2018-08-23T10:01:08.016Z,30.55
2018-08-23T10:03:42.012Z,30.25
2018-08-23T10:06:16.022Z,30.30
2018-08-23T10:08:51.572Z,30.47
2018-08-23T10:11:25.548Z,30.48
2018-08-23T10:13:59.529Z,30.01
2018-08-23T10:16:33.539Z,30.41
2018-08-23T10:19:07.867Z,30.71
2018-08-23T10:21:42.099Z,30.57
2018-08-23T10:24:17.728Z,30.44
2018-08-23T10:26:46.809Z,30.33
2018-08-23T10:29:15.690Z,30.40
2018-08-23T10:31:44.958Z,30.59
2018-08-23T10:34:13.869Z,30.91
2018-08-23T10:36:42.776Z,31.19
2018-08-23T10:39:13.442Z,31.23
2018-08-23T10:41:42.520Z,30.97
2018-08-23T10:44:11.500Z,31.10
2018-08-23T10:46:45.864Z,30.73
2018-08-23T10:49:14.697Z,30.50
2018-08-23T10:51:43.702Z,30.53
2018-08-23T10:54:13.130Z,30.68
2018-08-23T10:56:42.061Z,30.60
2018-08-23T10:59:11.081Z,30.83
2018-08-23T11:01:40.442Z,30.67
2018-08-23T11:04:10.136Z,30.70
2018-08-23T11:06:45.087Z,31.07
2018-08-23T11:09:19.146Z,31.29
2018-08-23T11:11:48.040Z,31.50
2018-08-23T11:14:21.936Z,31.74
2018-08-23T11:16:56.795Z,31.55
2018-08-23T11:19:30.683Z,31.85
2018-08-23T11:21:59.963Z,32.03
2018-08-23T11:24:28.877Z,32.16
2018-08-23T11:26:57.760Z,32.15
2018-08-23T11:29:27.896Z,31.43
2018-08-23T11:31:56.815Z,31.37
2018-08-23T11:34:26.774Z,31.38
2018-08-23T11:36:56.184Z,30.94
2018-08-23T11:39:25.242Z,31.40
2018-08-23T11:41:54.216Z,30.86
2018-08-23T11:44:24.695Z,31.06
2018-08-23T11:46:53.807Z,31.48
2018-08-23T11:49:22.944Z,31.57
2018-08-23T11:51:52.247Z,31.72
2018-08-23T11:54:21.268Z,31.73
2018-08-23T11:56:50.196Z,31.67
2018-08-23T11:59:20.370Z,31.63
2018-08-23T12:01:49.621Z,31.54
2018-08-23T12:04:18.909Z,31.57
2018-08-23T12:06:48.561Z,31.71
2018-08-23T12:09:18.704Z,31.68
2018-08-23T12:11:47.679Z,32.10
2018-08-23T12:14:16.813Z,32.43
2018-08-23T12:16:45.791Z,32.56
2018-08-23T12:19:14.645Z,32.07
2018-08-23T12:21:43.931Z,31.91
2018-08-23T12:24:12.821Z,32.05
2018-08-23T12:26:41.912Z,32.39
2018-08-23T12:29:10.945Z,32.49
2018-08-23T12:31:39.973Z,32.07
2018-08-23T12:34:10.268Z,31.78
2018-08-23T12:36:44.802Z,31.67
2018-08-23T12:39:18.953Z,31.80
2018-08-23T12:41:53.475Z,31.67
2018-08-23T12:44:22.360Z,31.88
2018-08-23T12:46:55.403Z,32.13
2018-08-23T12:49:24.607Z,32.27
2018-08-23T12:51:53.481Z,32.31
2018-08-23T12:54:22.392Z,31.99
2018-08-23T12:56:51.350Z,31.94
2018-08-23T12:59:20.235Z,31.83
2018-08-23T13:01:49.507Z,32.13
2018-08-23T13:04:18.441Z,32.44
2018-08-23T13:06:47.266Z,32.71
2018-08-23T13:09:16.572Z,32.76
2018-08-23T13:11:45.519Z,32.82
2018-08-23T13:14:14.649Z,32.70
2018-08-23T13:16:43.637Z,32.54
2018-08-23T13:19:12.581Z,32.62
2018-08-23T13:21:41.470Z,32.10
2018-08-23T13:24:10.467Z,32.16
2018-08-23T13:26:45.325Z,32.16
2018-08-23T13:29:14.845Z,32.08
2018-08-23T13:31:43.829Z,32.18
2018-08-23T13:34:12.798Z,32.28
2018-08-23T13:36:41.844Z,32.22
2018-08-23T13:39:12.576Z,32.51
2018-08-23T13:41:41.669Z,32.76
2018-08-23T13:44:11.039Z,32.92
2018-08-23T13:46:39.849Z,32.97
2018-08-23T13:49:08.741Z,32.65
2018-08-23T13:51:37.779Z,32.32
2018-08-23T13:54:06.815Z,32.13
2018-08-23T13:56:35.713Z,32.17
2018-08-23T13:59:05.226Z,32.22
2018-08-23T14:01:34.144Z,32.28
2018-08-23T14:04:03.195Z,32.06
2018-08-23T14:06:32.524Z,32.07
2018-08-23T14:09:01.323Z,32.21
2018-08-23T14:11:30.256Z,32.39
2018-08-23T14:13:59.531Z,32.49
2018-08-23T14:16:28.405Z,32.56
2018-08-23T14:18:57.423Z,32.53
2018-08-23T14:21:26.425Z,32.52
2018-08-23T14:23:55.379Z,32.63
2018-08-23T14:26:24.448Z,32.79
2018-08-23T14:28:53.871Z,32.87
2018-08-23T14:31:22.821Z,32.95
2018-08-23T14:33:51.701Z,33.03
2018-08-23T14:36:20.690Z,33.02
2018-08-23T14:38:49.719Z,32.88
2018-08-23T14:41:18.822Z,32.86
2018-08-23T14:43:48.254Z,32.88
2018-08-23T14:46:22.354Z,32.79
2018-08-23T14:48:51.346Z,32.83
2018-08-23T14:51:20.390Z,32.80
2018-08-23T14:53:49.533Z,32.68
2018-08-23T14:56:23.368Z,32.56
2018-08-23T14:58:52.141Z,32.71
2018-08-23T15:01:21.064Z,32.84
2018-08-23T15:03:50.612Z,32.91
2018-08-23T15:06:19.469Z,32.93
2018-08-23T15:09:04.973Z,33.00
2018-08-23T15:11:33.871Z,33.14
2018-08-23T15:14:02.847Z,33.21
2018-08-23T15:16:31.944Z,32.60
2018-08-23T15:19:01.054Z,32.52
2018-08-23T15:21:30.021Z,32.49
2018-08-23T15:23:58.992Z,32.62
2018-08-23T15:26:28.187Z,32.31
2018-08-23T15:28:56.840Z,32.20
2018-08-23T15:31:26.408Z,32.29
2018-08-23T15:33:55.380Z,32.20
2018-08-23T15:36:24.566Z,32.09
2018-08-23T15:38:53.525Z,31.87
2018-08-23T15:41:22.720Z,31.72
2018-08-23T15:43:51.812Z,31.69
2018-08-23T15:46:21.211Z,31.61
2018-08-23T15:48:50.515Z,31.60
2018-08-23T15:51:19.541Z,31.64
2018-08-23T15:53:48.851Z,31.62
2018-08-23T15:56:17.927Z,31.72
2018-08-23T15:58:48.022Z,31.84
2018-08-23T16:01:19.490Z,31.88
2018-08-23T16:03:48.545Z,31.62
2018-08-23T16:06:17.488Z,31.48
2018-08-23T16:08:51.964Z,31.47
2018-08-23T16:11:23.974Z,31.37
2018-08-23T16:13:53.850Z,31.25
2018-08-23T16:16:28.792Z,31.17
2018-08-23T16:19:02.904Z,31.07
2018-08-23T16:21:38.469Z,31.03
2018-08-23T16:24:07.676Z,30.91
2018-08-23T16:26:42.692Z,30.85
2018-08-23T16:29:12.205Z,30.82
2018-08-23T16:31:41.219Z,30.79
2018-08-23T16:34:10.146Z,30.68
2018-08-23T16:36:43.206Z,30.61
2018-08-23T16:39:12.441Z,30.52
2018-08-23T16:41:41.368Z,30.48
2018-08-23T16:44:10.562Z,30.25
2018-08-23T16:46:39.586Z,30.22
2018-08-23T16:49:08.657Z,30.14
2018-08-23T16:51:38.267Z,29.95
2018-08-23T16:54:07.277Z,29.93
2018-08-23T16:56:36.297Z,29.90
2018-08-23T16:59:05.325Z,29.85
2018-08-23T17:01:34.419Z,29.72
2018-08-23T17:04:03.478Z,29.68
2018-08-23T17:06:32.860Z,29.64
2018-08-23T17:09:01.879Z,29.44
2018-08-23T17:11:30.856Z,29.34
2018-08-23T17:13:59.855Z,29.33
2018-08-23T17:16:33.971Z,29.29
2018-08-23T17:19:03.342Z,29.27
2018-08-23T17:21:33.339Z,29.17
2018-08-23T17:24:03.156Z,29.10
2018-08-23T17:26:32.447Z,29.06
2018-08-23T17:29:01.497Z,28.94
2018-08-23T17:31:30.994Z,28.90
2018-08-23T17:33:59.852Z,28.84
2018-08-23T17:36:28.780Z,28.71
2018-08-23T17:38:57.917Z,28.62
2018-08-23T17:41:26.741Z,28.60
2018-08-23T17:43:55.708Z,28.58
2018-08-23T17:46:24.903Z,28.55
2018-08-23T17:48:53.904Z,28.43
2018-08-23T17:51:22.919Z,28.34
2018-08-23T17:53:51.883Z,28.32
2018-08-23T17:56:20.881Z,28.29
2018-08-23T17:58:49.704Z,28.23
2018-08-23T18:01:19.072Z,28.11
2018-08-23T18:03:48.021Z,28.05
2018-08-23T18:06:16.955Z,28.06
2018-08-23T18:08:46.411Z,27.93
2018-08-23T18:11:15.215Z,27.85
2018-08-23T18:13:44.224Z,27.77
2018-08-23T18:16:19.184Z,27.71
2018-08-23T18:18:48.172Z,27.60
2018-08-23T18:21:17.117Z,27.53
2018-08-23T18:23:46.090Z,27.44
2018-08-23T18:26:14.923Z,27.37
2018-08-23T18:28:43.837Z,27.31
2018-08-23T18:31:13.352Z,27.23
2018-08-23T18:33:42.313Z,27.13
2018-08-23T18:36:11.258Z,27.09
2018-08-23T18:38:40.638Z,27.02
2018-08-23T18:41:09.494Z,26.92
2018-08-23T18:43:38.531Z,26.81
2018-08-23T18:46:07.556Z,26.72
2018-08-23T18:48:36.604Z,26.62
2018-08-23T18:51:05.636Z,26.62
2018-08-23T18:53:35.059Z,26.66
2018-08-23T18:56:04.077Z,26.59
2018-08-23T18:58:33.124Z,26.62
2018-08-23T19:01:02.454Z,26.67
2018-08-23T19:03:31.446Z,26.68
2018-08-23T19:06:00.561Z,26.64
2018-08-23T19:08:30.155Z,26.52
2018-08-23T19:10:59.364Z,26.44
2018-08-23T19:13:28.386Z,26.45
2018-08-23T19:16:02.780Z,26.48
2018-08-23T19:18:31.760Z,26.57
2018-08-23T19:21:00.753Z,26.51
2018-08-23T19:23:29.953Z,26.54
2018-08-23T19:25:58.914Z,26.48
2018-08-23T19:28:27.942Z,26.40
2018-08-23T19:30:57.287Z,26.28
2018-08-23T19:33:26.195Z,26.22
2018-08-23T19:35:55.094Z,26.15
2018-08-23T19:38:25.072Z,26.09
2018-08-23T19:40:54.048Z,26.02
2018-08-23T19:43:23.078Z,26.08
2018-08-23T19:45:57.639Z,26.10
2018-08-23T19:48:26.631Z,26.06
2018-08-23T19:50:55.517Z,26.10
2018-08-23T19:53:24.869Z,26.13
2018-08-23T19:55:53.683Z,26.07
2018-08-23T19:58:22.645Z,26.03
2018-08-23T20:00:51.616Z,25.96
2018-08-23T20:03:20.629Z,25.94
2018-08-23T20:05:49.447Z,25.93
2018-08-23T20:08:18.733Z,25.97
2018-08-23T20:10:47.722Z,26.00
2018-08-23T20:13:16.612Z,25.92
2018-08-23T20:15:45.668Z,25.65
2018-08-23T20:18:14.814Z,25.62
2018-08-23T20:20:43.881Z,25.60
2018-08-23T20:23:12.877Z,25.55
2018-08-23T20:25:55.055Z,25.54
2018-08-23T20:28:24.629Z,25.40
2018-08-23T20:30:54.528Z,25.38
2018-08-23T20:33:23.755Z,25.31
2018-08-23T20:35:53.180Z,25.20
2018-08-23T20:38:23.154Z,25.18
2018-08-23T20:40:52.209Z,25.03
2018-08-23T20:43:21.147Z,24.96
2018-08-23T20:45:50.225Z,24.88
2018-08-23T20:48:19.289Z,24.86
2018-08-23T20:50:48.176Z,24.72
2018-08-23T20:53:18.295Z,24.75
2018-08-23T20:55:47.189Z,24.62
2018-08-23T20:58:16.718Z,24.59
2018-08-23T21:00:45.562Z,24.49
2018-08-23T21:03:14.539Z,24.42
2018-08-23T21:05:43.915Z,24.28
2018-08-23T21:08:12.829Z,24.28
2018-08-23T21:10:41.702Z,24.24
2018-08-23T21:13:10.665Z,24.20
2018-08-23T21:15:39.797Z,24.16
2018-08-23T21:18:11.228Z,24.08
2018-08-23T21:20:41.035Z,24.00
2018-08-23T21:23:13.130Z,23.97
2018-08-23T21:25:42.026Z,23.89
2018-08-23T21:28:10.967Z,23.83
2018-08-23T21:30:40.537Z,23.80
2018-08-23T21:33:09.486Z,23.81
2018-08-23T21:35:38.243Z,23.78
2018-08-23T21:38:07.850Z,23.80
2018-08-23T21:40:36.634Z,23.80
2018-08-23T21:43:05.925Z,23.79
2018-08-23T21:45:35.340Z,23.82
2018-08-23T21:48:04.229Z,23.71
2018-08-23T21:50:33.153Z,23.55
2018-08-23T21:53:02.411Z,23.50
2018-08-23T21:55:38.243Z,23.41
2018-08-23T21:58:09.183Z,23.38
2018-08-23T22:00:43.427Z,23.42
2018-08-23T22:03:13.955Z,23.33
2018-08-23T22:05:43.384Z,23.27
2018-08-23T22:08:12.389Z,23.29
2018-08-23T22:10:41.830Z,23.29
2018-08-23T22:13:10.747Z,23.31
2018-08-23T22:15:44.824Z,23.38
2018-08-23T22:18:13.823Z,23.43
2018-08-23T22:20:42.810Z,23.54
2018-08-23T22:23:12.192Z,23.52
2018-08-23T22:25:41.441Z,23.55
2018-08-23T22:28:10.796Z,23.54
2018-08-23T22:30:41.644Z,23.50
2018-08-23T22:33:11.953Z,23.49
2018-08-23T22:35:41.164Z,23.45
2018-08-23T22:38:11.094Z,23.43
2018-08-23T22:40:40.123Z,23.39
2018-08-23T22:43:09.208Z,23.37
2018-08-23T22:45:38.609Z,23.30
2018-08-23T22:48:07.943Z,23.23
2018-08-23T22:50:36.918Z,23.13
2018-08-23T22:53:06.081Z,23.04
2018-08-23T22:58:13.017Z,22.87
2018-08-23T23:00:42.600Z,22.75
2018-08-23T23:03:17.178Z,22.69
2018-08-23T23:08:38.746Z,22.32
2018-08-23T23:11:07.809Z,22.26
2018-08-23T23:13:36.652Z,22.22
2018-08-23T23:16:05.798Z,22.35
2018-08-23T23:18:34.731Z,22.39
2018-08-23T23:21:03.757Z,22.38
2018-08-23T23:23:32.952Z,22.34
2018-08-23T23:26:01.967Z,22.39
2018-08-23T23:28:31.812Z,22.34
2018-08-23T23:31:00.833Z,22.35
2018-08-23T23:33:29.909Z,22.38
2018-08-23T23:35:58.979Z,22.34
2018-08-23T23:38:28.393Z,22.29
2018-08-23T23:40:57.287Z,22.23
2018-08-23T23:43:26.296Z,22.15
2018-08-23T23:45:55.281Z,22.11
2018-08-23T23:48:24.431Z,21.97
2018-08-23T23:50:53.454Z,21.95
2018-08-23T23:53:22.350Z,22.07
2018-08-23T23:55:51.386Z,22.02
2018-08-23T23:58:20.351Z,22.02
